createdAt,value
2023-04-27T04:31:15.969Z,91.39
2023-04-27T04:33:42.530Z,90.69
2023-04-27T04:36:09.307Z,91.29
2023-04-27T04:38:35.891Z,91.26
2023-04-27T04:41:02.460Z,91.60
2023-04-27T04:43:29.015Z,91.47
2023-04-27T04:45:55.677Z,91.33
2023-04-27T04:48:22.232Z,92.05
2023-04-27T04:50:48.776Z,92.16
2023-04-27T04:53:15.397Z,92.19
2023-04-27T04:55:42.048Z,91.88
2023-04-27T04:58:08.646Z,91.82
2023-04-27T05:00:35.232Z,91.96
2023-04-27T05:03:01.879Z,92.16
2023-04-27T05:05:28.534Z,91.93
2023-04-27T05:07:55.115Z,92.09
2023-04-27T05:10:21.671Z,92.60
2023-04-27T05:12:48.190Z,92.40
2023-04-27T05:15:14.817Z,92.82
2023-04-27T05:17:41.573Z,92.54
2023-04-27T05:20:09.644Z,92.72
2023-04-27T05:22:36.266Z,92.63
2023-04-27T05:25:02.869Z,92.47
2023-04-27T05:27:29.433Z,92.40
2023-04-27T05:29:55.995Z,91.63
2023-04-27T05:32:22.538Z,91.36
2023-04-27T05:34:49.654Z,91.72
2023-04-27T05:37:16.312Z,91.95
2023-04-27T05:39:42.930Z,91.64
2023-04-27T05:42:09.484Z,90.76
2023-04-27T05:44:36.102Z,90.90
2023-04-27T05:47:02.700Z,90.66
2023-04-27T05:49:29.271Z,90.29
2023-04-27T05:51:55.842Z,89.91
2023-04-27T05:54:22.480Z,89.79
2023-04-27T05:56:49.011Z,90.06
2023-04-27T05:59:15.881Z,89.90
2023-04-27T06:01:42.956Z,88.39
2023-04-27T06:04:09.603Z,88.27
2023-04-27T06:06:36.205Z,88.30
2023-04-27T06:09:02.828Z,88.21
2023-04-27T06:11:29.333Z,87.89
2023-04-27T06:13:55.877Z,87.15
2023-04-27T06:16:23.498Z,87.36
2023-04-27T06:18:50.713Z,86.29
2023-04-27T06:21:17.504Z,86.83
2023-04-27T06:23:44.077Z,87.19
2023-04-27T06:26:10.613Z,86.94
2023-04-27T06:28:37.177Z,87.13
2023-04-27T06:31:03.891Z,87.16
2023-04-27T06:33:30.384Z,87.04
2023-04-27T06:35:56.934Z,87.27
2023-04-27T06:38:23.534Z,87.29
2023-04-27T06:40:52.870Z,86.21
2023-04-27T06:43:19.440Z,86.51
2023-04-27T06:45:46.123Z,86.29
2023-04-27T06:48:12.824Z,85.55
2023-04-27T06:50:39.606Z,85.67
2023-04-27T06:53:06.174Z,85.07
2023-04-27T06:55:32.745Z,83.59
2023-04-27T06:57:59.361Z,83.82
2023-04-27T07:00:26.093Z,83.47
2023-04-27T07:02:52.839Z,83.30
2023-04-27T07:05:19.413Z,83.02
2023-04-27T07:07:45.934Z,82.46
2023-04-27T07:10:12.455Z,82.41
2023-04-27T07:12:39.535Z,82.63
2023-04-27T07:15:06.779Z,81.95
2023-04-27T07:17:33.460Z,81.89
2023-04-27T07:20:01.118Z,82.11
2023-04-27T07:22:27.677Z,81.51
2023-04-27T07:24:54.222Z,81.44
2023-04-27T07:27:20.826Z,80.39
2023-04-27T07:29:47.373Z,78.74
2023-04-27T07:32:14.041Z,78.97
2023-04-27T07:34:52.514Z,78.24
2023-04-27T07:37:19.729Z,75.99
2023-04-27T07:39:46.449Z,75.95
2023-04-27T07:42:12.965Z,75.03
2023-04-27T07:44:39.486Z,75.95
2023-04-27T07:47:05.984Z,76.05
2023-04-27T07:49:32.510Z,75.00
2023-04-27T07:51:59.057Z,73.67
2023-04-27T07:54:25.603Z,73.43
2023-04-27T07:56:52.093Z,72.82
2023-04-27T07:59:18.649Z,73.48
2023-04-27T08:01:45.200Z,72.67
2023-04-27T08:04:11.886Z,71.97
2023-04-27T08:06:39.350Z,70.69
2023-04-27T08:09:06.041Z,70.84
2023-04-27T08:11:32.639Z,70.58
2023-04-27T08:13:59.201Z,69.56
2023-04-27T08:16:25.866Z,69.16
2023-04-27T08:18:52.433Z,65.76
2023-04-27T08:21:18.957Z,64.79
2023-04-27T08:23:45.531Z,66.20
2023-04-27T08:26:15.506Z,66.40
2023-04-27T08:28:42.076Z,66.92
2023-04-27T08:31:08.585Z,66.20
2023-04-27T08:33:35.147Z,65.42
2023-04-27T08:36:01.738Z,64.97
2023-04-27T08:38:28.416Z,64.86
2023-04-27T08:40:54.939Z,64.64
2023-04-27T08:43:21.451Z,64.63
2023-04-27T08:45:48.913Z,62.82
2023-04-27T08:48:15.562Z,61.82
2023-04-27T08:50:43.694Z,60.94
2023-04-27T08:53:19.978Z,59.66
2023-04-27T08:55:46.461Z,60.64
2023-04-27T08:58:13.066Z,58.45
2023-04-27T09:00:40.721Z,56.90
2023-04-27T09:03:08.295Z,56.48
2023-04-27T09:05:35.042Z,56.21
2023-04-27T09:08:03.795Z,57.15
2023-04-27T09:10:30.347Z,57.62
2023-04-27T09:13:00.278Z,57.67
2023-04-27T09:15:27.752Z,58.42
2023-04-27T09:17:57.633Z,59.35
2023-04-27T09:20:24.536Z,58.41
2023-04-27T09:22:52.235Z,57.78
2023-04-27T09:25:28.838Z,57.22
2023-04-27T09:27:56.121Z,57.93
2023-04-27T09:30:22.698Z,56.81
2023-04-27T09:32:55.767Z,55.89
2023-04-27T09:35:24.385Z,55.39
2023-04-27T09:37:51.181Z,54.22
2023-04-27T09:40:18.938Z,52.61
2023-04-27T09:42:46.076Z,52.62
2023-04-27T09:45:12.632Z,52.79
2023-04-27T09:47:39.206Z,52.35
2023-04-27T09:50:06.084Z,53.46
2023-04-27T09:52:32.685Z,54.17
2023-04-27T09:54:59.198Z,54.94
2023-04-27T09:57:36.692Z,54.39
2023-04-27T10:00:18.507Z,56.11
2023-04-27T10:03:25.552Z,54.19
2023-04-27T10:06:29.822Z,53.32
2023-04-27T10:08:56.640Z,52.13
2023-04-27T10:11:39.802Z,50.35
2023-04-27T10:14:10.086Z,50.53
2023-04-27T10:16:47.566Z,50.33
2023-04-27T10:19:14.617Z,51.42
2023-04-27T10:22:02.459Z,51.19
2023-04-27T10:24:40.686Z,50.85
2023-04-27T10:27:08.232Z,50.77
2023-04-27T10:29:44.542Z,49.56
2023-04-27T10:32:25.335Z,49.79
2023-04-27T10:34:52.436Z,49.76
2023-04-27T10:37:19.061Z,49.87
2023-04-27T10:39:49.161Z,50.50
2023-04-27T10:42:26.999Z,50.89
2023-04-27T10:44:57.238Z,51.45
2023-04-27T10:47:23.794Z,50.60
2023-04-27T10:49:53.665Z,50.97
2023-04-27T10:52:20.160Z,50.50
2023-04-27T10:54:46.725Z,51.07
2023-04-27T10:57:13.464Z,51.57
2023-04-27T10:59:53.829Z,51.55
2023-04-27T11:02:27.315Z,51.77
2023-04-27T11:04:54.149Z,51.55
2023-04-27T11:07:27.337Z,53.18
2023-04-27T11:09:54.010Z,52.83
2023-04-27T11:12:20.568Z,52.57
2023-04-27T11:14:47.116Z,53.20
2023-04-27T11:17:13.696Z,50.72
2023-04-27T11:19:47.061Z,51.21
2023-04-27T11:22:14.197Z,50.71
2023-04-27T11:24:47.216Z,51.46
2023-04-27T11:27:13.750Z,51.84
2023-04-27T11:29:40.288Z,52.21
2023-04-27T11:32:06.887Z,51.45
2023-04-27T11:34:33.520Z,49.96
2023-04-27T11:37:17.344Z,51.17
2023-04-27T11:39:45.237Z,49.81
2023-04-27T11:42:21.563Z,50.04
2023-04-27T11:44:54.950Z,49.75
2023-04-27T11:47:21.904Z,50.47
2023-04-27T11:49:49.304Z,51.57
2023-04-27T11:52:16.247Z,51.91
2023-04-27T11:54:54.121Z,52.29
2023-04-27T11:57:30.794Z,52.98
2023-04-27T11:59:58.109Z,52.38
2023-04-27T12:02:24.778Z,51.06
2023-04-27T12:04:51.606Z,48.59
2023-04-27T12:07:18.714Z,46.68
2023-04-27T12:09:45.377Z,46.74
2023-04-27T12:12:11.904Z,47.60
2023-04-27T12:14:38.496Z,47.79
2023-04-27T12:17:05.172Z,48.04
2023-04-27T12:19:31.721Z,49.07
2023-04-27T12:21:58.517Z,50.07
2023-04-27T12:24:25.068Z,50.99
2023-04-27T12:26:51.787Z,51.57
2023-04-27T12:29:18.338Z,52.94
2023-04-27T12:31:44.978Z,53.96
2023-04-27T12:34:11.759Z,54.27
2023-04-27T12:36:38.570Z,54.19
2023-04-27T12:39:15.657Z,53.74
2023-04-27T12:41:43.937Z,53.75
2023-04-27T12:44:10.988Z,53.27
2023-04-27T12:46:37.714Z,53.21
2023-04-27T12:49:04.288Z,52.86
2023-04-27T12:51:30.815Z,53.65
2023-04-27T12:54:00.222Z,53.15
2023-04-27T12:56:28.187Z,53.45
2023-04-27T12:58:54.996Z,54.68
2023-04-27T13:01:22.048Z,54.67
2023-04-27T13:03:48.764Z,56.82
2023-04-27T13:06:15.499Z,57.52
2023-04-27T13:08:42.061Z,57.38
2023-04-27T13:11:08.632Z,58.75
2023-04-27T13:13:35.399Z,59.77
2023-04-27T13:16:02.017Z,59.24
2023-04-27T13:18:28.573Z,61.18
2023-04-27T13:20:55.180Z,61.47
2023-04-27T13:23:21.701Z,62.10
2023-04-27T13:25:48.262Z,62.71
2023-04-27T13:28:14.892Z,62.61
2023-04-27T13:30:41.669Z,63.45
2023-04-27T13:33:21.784Z,63.11
2023-04-27T13:35:50.603Z,62.85
2023-04-27T13:38:17.175Z,61.78
2023-04-27T13:40:43.781Z,60.48
2023-04-27T13:43:10.325Z,60.14
2023-04-27T13:45:36.874Z,59.11
2023-04-27T13:48:03.478Z,58.46
2023-04-27T13:50:30.054Z,58.03
2023-04-27T13:52:56.697Z,57.51
2023-04-27T13:55:23.310Z,57.71
2023-04-27T13:57:49.864Z,58.27
2023-04-27T14:00:16.735Z,54.17
2023-04-27T14:02:43.383Z,50.95
2023-04-27T14:05:10.141Z,51.41
2023-04-27T14:07:36.871Z,50.91
2023-04-27T14:10:04.201Z,49.74
2023-04-27T14:12:34.034Z,48.96
2023-04-27T14:15:00.632Z,47.75
2023-04-27T14:17:27.244Z,44.53
2023-04-27T14:19:53.776Z,45.41
2023-04-27T14:22:20.415Z,46.12
2023-04-27T14:24:47.021Z,45.51
2023-04-27T14:27:14.628Z,43.28
2023-04-27T14:29:41.196Z,43.47
2023-04-27T14:32:07.813Z,46.43
2023-04-27T14:34:34.559Z,47.49
2023-04-27T14:37:01.093Z,48.64
2023-04-27T14:39:27.665Z,49.98
2023-04-27T14:41:54.357Z,50.27
2023-04-27T14:44:21.009Z,51.74
2023-04-27T14:46:47.595Z,51.69
2023-04-27T14:49:14.390Z,52.27
2023-04-27T14:51:43.346Z,52.54
2023-04-27T14:54:10.148Z,52.34
2023-04-27T14:56:36.852Z,52.40
2023-04-27T14:59:03.439Z,53.33
2023-04-27T15:01:30.020Z,54.76
2023-04-27T15:03:56.715Z,54.88
2023-04-27T15:06:23.817Z,55.68
2023-04-27T15:08:50.377Z,56.61
2023-04-27T15:11:16.958Z,56.50
2023-04-27T15:13:43.468Z,57.61
2023-04-27T15:16:10.105Z,58.80
2023-04-27T15:18:36.707Z,58.54
2023-04-27T15:21:03.247Z,58.61
2023-04-27T15:23:29.796Z,58.49
2023-04-27T15:25:57.696Z,58.73
2023-04-27T15:28:24.301Z,59.08
2023-04-27T15:30:50.925Z,58.48
2023-04-27T15:33:17.770Z,59.32
2023-04-27T15:35:44.462Z,59.73
2023-04-27T15:38:12.129Z,59.97
2023-04-27T15:40:39.046Z,60.31
2023-04-27T15:43:05.659Z,59.57
2023-04-27T15:45:32.191Z,59.76
2023-04-27T15:47:58.729Z,59.81
2023-04-27T15:50:25.570Z,60.13
2023-04-27T15:52:52.166Z,59.38
2023-04-27T15:55:18.798Z,55.60
2023-04-27T15:57:45.406Z,55.85
2023-04-27T16:00:12.423Z,56.66
2023-04-27T16:02:39.513Z,57.06
2023-04-27T16:05:06.920Z,57.38
2023-04-27T16:07:36.836Z,57.52
2023-04-27T16:10:03.930Z,56.01
2023-04-27T16:12:30.525Z,54.68
2023-04-27T16:14:57.071Z,49.95
2023-04-27T16:17:24.469Z,48.63
2023-04-27T16:19:51.112Z,50.63
2023-04-27T16:22:17.705Z,52.35
2023-04-27T16:24:44.276Z,53.82
2023-04-27T16:27:10.834Z,55.71
2023-04-27T16:29:37.400Z,56.56
2023-04-27T16:32:04.050Z,58.96
2023-04-27T16:34:30.656Z,59.82
2023-04-27T16:36:57.272Z,60.08
2023-04-27T16:39:23.780Z,60.83
2023-04-27T16:41:50.340Z,61.19
2023-04-27T16:44:16.926Z,61.34
2023-04-27T16:46:43.451Z,61.33
2023-04-27T16:49:10.174Z,61.67
2023-04-27T16:51:36.724Z,62.38
2023-04-27T16:54:03.296Z,63.16
2023-04-27T16:56:34.188Z,63.18
2023-04-27T16:59:01.160Z,63.49
2023-04-27T17:01:27.784Z,63.53
2023-04-27T17:03:54.495Z,64.59
2023-04-27T17:06:21.236Z,64.24
2023-04-27T17:08:47.862Z,65.33
2023-04-27T17:11:14.912Z,64.89
2023-04-27T17:13:41.420Z,65.03
2023-04-27T17:16:08.054Z,65.24
2023-04-27T17:18:34.623Z,66.05
2023-04-27T17:21:01.176Z,66.10
2023-04-27T17:23:27.784Z,65.37
2023-04-27T17:25:54.298Z,66.26
2023-04-27T17:28:20.892Z,66.65
2023-04-27T17:30:47.451Z,67.23
2023-04-27T17:33:14.909Z,67.74
2023-04-27T17:35:41.692Z,68.39
2023-04-27T17:38:08.248Z,68.38
2023-04-27T17:40:34.835Z,67.85
2023-04-27T17:43:01.395Z,68.34
2023-04-27T17:45:28.370Z,68.51
2023-04-27T17:47:55.060Z,68.25
2023-04-27T17:50:21.742Z,69.06
2023-04-27T17:52:48.293Z,68.84
2023-04-27T17:55:14.876Z,68.94
2023-04-27T17:57:41.380Z,69.99
2023-04-27T18:00:08.441Z,69.50
2023-04-27T18:02:35.101Z,70.33
2023-04-27T18:05:05.614Z,71.16
2023-04-27T18:07:34.621Z,71.23
2023-04-27T18:10:01.208Z,71.14
2023-04-27T18:12:27.845Z,71.98
2023-04-27T18:14:54.340Z,71.94
2023-04-27T18:17:20.905Z,72.91
2023-04-27T18:19:55.279Z,72.75
2023-04-27T18:22:27.668Z,73.21
2023-04-27T18:24:54.210Z,73.42
2023-04-27T18:27:20.735Z,73.51
2023-04-27T18:29:47.313Z,74.74
2023-04-27T18:32:13.858Z,74.41
2023-04-27T18:34:40.464Z,75.15
2023-04-27T18:37:07.036Z,75.06
2023-04-27T18:39:33.562Z,75.12
2023-04-27T18:42:00.142Z,76.02
2023-04-27T18:44:26.706Z,75.67
2023-04-27T18:46:53.269Z,75.96
2023-04-27T18:49:19.972Z,76.38
2023-04-27T18:51:46.545Z,76.21
2023-04-27T18:54:13.929Z,76.37
2023-04-27T18:56:40.471Z,77.12
2023-04-27T18:59:07.023Z,77.17
2023-04-27T19:01:33.988Z,77.14
2023-04-27T19:04:00.918Z,78.07
2023-04-27T19:06:27.727Z,78.08
2023-04-27T19:08:54.287Z,78.15
2023-04-27T19:11:20.861Z,78.13
2023-04-27T19:13:47.439Z,77.33
2023-04-27T19:16:13.979Z,78.15
2023-04-27T19:18:40.622Z,78.56
2023-04-27T19:21:10.011Z,78.07
2023-04-27T19:23:36.735Z,78.07
2023-04-27T19:26:12.515Z,78.62
2023-04-27T19:28:40.088Z,78.57
2023-04-27T19:31:06.657Z,78.80
2023-04-27T19:33:33.287Z,79.03
2023-04-27T19:35:59.855Z,78.50
2023-04-27T19:38:26.431Z,79.23
2023-04-27T19:40:53.007Z,79.37
2023-04-27T19:43:20.015Z,79.28
2023-04-27T19:45:46.581Z,79.16
2023-04-27T19:48:13.160Z,79.92
2023-04-27T19:50:42.873Z,79.47
2023-04-27T19:53:09.407Z,80.43
2023-04-27T19:55:35.930Z,80.59
2023-04-27T19:58:02.537Z,80.50
2023-04-27T20:00:29.091Z,80.38
